sensor_id;sensor_type;location;lat;lon;timestamp;P1;durP1;ratioP1;P2;durP2;ratioP2
68921;SDS011;55959;51.244;5.724;2023-11-22T00:01:05;8.50;;;7.70;;
68921;SDS011;55959;51.244;5.724;2023-11-22T00:03:31;9.03;;;8.13;;
68921;SDS011;55959;51.244;5.724;2023-11-22T00:05:57;9.23;;;8.20;;
68921;SDS011;55959;51.244;5.724;2023-11-22T00:08:23;8.77;;;7.97;;
68921;SDS011;55959;51.244;5.724;2023-11-22T00:10:49;10.30;;;8.37;;
68921;SDS011;55959;51.244;5.724;2023-11-22T00:13:15;10.83;;;9.00;;
68921;SDS011;55959;51.244;5.724;2023-11-22T00:15:40;9.73;;;8.73;;
68921;SDS011;55959;51.244;5.724;2023-11-22T00:18:06;9.77;;;7.90;;
68921;SDS011;55959;51.244;5.724;2023-11-22T00:20:32;9.03;;;8.23;;
68921;SDS011;55959;51.244;5.724;2023-11-22T00:22:58;8.73;;;7.87;;
68921;SDS011;55959;51.244;5.724;2023-11-22T00:25:24;9.17;;;8.27;;
68921;SDS011;55959;51.244;5.724;2023-11-22T00:27:50;9.30;;;8.40;;
68921;SDS011;55959;51.244;5.724;2023-11-22T00:30:16;10.13;;;8.83;;
68921;SDS011;55959;51.244;5.724;2023-11-22T00:32:42;9.87;;;8.87;;
68921;SDS011;55959;51.244;5.724;2023-11-22T00:35:08;9.30;;;8.40;;
68921;SDS011;55959;51.244;5.724;2023-11-22T00:37:34;8.87;;;7.97;;
68921;SDS011;55959;51.244;5.724;2023-11-22T00:40:00;9.77;;;8.77;;
68921;SDS011;55959;51.244;5.724;2023-11-22T00:42:35;8.57;;;7.70;;
68921;SDS011;55959;51.244;5.724;2023-11-22T00:45:06;8.87;;;7.97;;
68921;SDS011;55959;51.244;5.724;2023-11-22T00:47:34;9.60;;;8.60;;
68921;SDS011;55959;51.244;5.724;2023-11-22T00:50:01;8.63;;;7.50;;
68921;SDS011;55959;51.244;5.724;2023-11-22T00:52:29;8.77;;;7.97;;
68921;SDS011;55959;51.244;5.724;2023-11-22T00:54:58;9.87;;;8.87;;
68921;SDS011;55959;51.244;5.724;2023-11-22T00:57:23;8.83;;;7.93;;
68921;SDS011;55959;51.244;5.724;2023-11-22T00:59:51;9.73;;;8.03;;
68921;SDS011;55959;51.244;5.724;2023-11-22T01:02:19;9.03;;;8.17;;
68921;SDS011;55959;51.244;5.724;2023-11-22T01:04:45;9.73;;;8.83;;
68921;SDS011;55959;51.244;5.724;2023-11-22T01:07:11;8.73;;;7.87;;
68921;SDS011;55959;51.244;5.724;2023-11-22T01:09:37;8.93;;;7.67;;
68921;SDS011;55959;51.244;5.724;2023-11-22T01:12:02;9.63;;;8.60;;
68921;SDS011;55959;51.244;5.724;2023-11-22T01:14:29;9.20;;;8.30;;
68921;SDS011;55959;51.244;5.724;2023-11-22T01:16:55;8.97;;;8.17;;
68921;SDS011;55959;51.244;5.724;2023-11-22T01:19:21;9.50;;;8.50;;
68921;SDS011;55959;51.244;5.724;2023-11-22T01:21:47;8.83;;;7.97;;
68921;SDS011;55959;51.244;5.724;2023-11-22T01:24:13;9.77;;;8.77;;
68921;SDS011;55959;51.244;5.724;2023-11-22T01:26:39;9.90;;;8.90;;
68921;SDS011;55959;51.244;5.724;2023-11-22T01:29:05;10.37;;;9.10;;
68921;SDS011;55959;51.244;5.724;2023-11-22T01:31:31;9.43;;;8.30;;
68921;SDS011;55959;51.244;5.724;2023-11-22T01:33:57;9.93;;;8.93;;
68921;SDS011;55959;51.244;5.724;2023-11-22T01:36:24;9.67;;;8.67;;
68921;SDS011;55959;51.244;5.724;2023-11-22T01:38:50;10.47;;;8.47;;
68921;SDS011;55959;51.244;5.724;2023-11-22T01:41:17;9.10;;;8.20;;
68921;SDS011;55959;51.244;5.724;2023-11-22T01:43:43;9.90;;;8.83;;
68921;SDS011;55959;51.244;5.724;2023-11-22T01:46:09;10.00;;;8.83;;
68921;SDS011;55959;51.244;5.724;2023-11-22T01:48:47;9.63;;;8.50;;
68921;SDS011;55959;51.244;5.724;2023-11-22T01:51:13;11.87;;;9.60;;
68921;SDS011;55959;51.244;5.724;2023-11-22T01:53:39;9.87;;;8.97;;
68921;SDS011;55959;51.244;5.724;2023-11-22T01:56:05;10.40;;;9.33;;
68921;SDS011;55959;51.244;5.724;2023-11-22T01:58:31;12.13;;;10.83;;
68921;SDS011;55959;51.244;5.724;2023-11-22T02:00:57;12.10;;;10.90;;
68921;SDS011;55959;51.244;5.724;2023-11-22T02:03:24;11.40;;;10.20;;
68921;SDS011;55959;51.244;5.724;2023-11-22T02:05:50;11.63;;;10.37;;
68921;SDS011;55959;51.244;5.724;2023-11-22T02:08:16;11.80;;;10.57;;
68921;SDS011;55959;51.244;5.724;2023-11-22T02:10:43;11.80;;;10.47;;
68921;SDS011;55959;51.244;5.724;2023-11-22T02:13:10;11.50;;;10.40;;
68921;SDS011;55959;51.244;5.724;2023-11-22T02:15:35;11.37;;;10.27;;
68921;SDS011;55959;51.244;5.724;2023-11-22T02:18:02;11.53;;;10.40;;
68921;SDS011;55959;51.244;5.724;2023-11-22T02:20:30;13.53;;;10.90;;
68921;SDS011;55959;51.244;5.724;2023-11-22T02:22:55;12.10;;;10.27;;
68921;SDS011;55959;51.244;5.724;2023-11-22T02:25:22;12.17;;;10.77;;
68921;SDS011;55959;51.244;5.724;2023-11-22T02:27:48;11.93;;;10.73;;
68921;SDS011;55959;51.244;5.724;2023-11-22T02:30:13;10.77;;;9.77;;
68921;SDS011;55959;51.244;5.724;2023-11-22T02:32:40;10.87;;;9.77;;
68921;SDS011;55959;51.244;5.724;2023-11-22T02:35:06;11.13;;;10.00;;
68921;SDS011;55959;51.244;5.724;2023-11-22T02:37:33;11.93;;;10.13;;
68921;SDS011;55959;51.244;5.724;2023-11-22T02:40:12;11.43;;;10.33;;
68921;SDS011;55959;51.244;5.724;2023-11-22T02:42:44;10.33;;;8.97;;
68921;SDS011;55959;51.244;5.724;2023-11-22T02:45:15;10.70;;;9.27;;
68921;SDS011;55959;51.244;5.724;2023-11-22T02:47:41;11.53;;;10.17;;
68921;SDS011;55959;51.244;5.724;2023-11-22T02:50:09;11.40;;;10.20;;
68921;SDS011;55959;51.244;5.724;2023-11-22T02:52:36;10.70;;;9.60;;
68921;SDS011;55959;51.244;5.724;2023-11-22T02:55:02;12.50;;;10.90;;
68921;SDS011;55959;51.244;5.724;2023-11-22T02:57:30;11.07;;;9.97;;
68921;SDS011;55959;51.244;5.724;2023-11-22T02:59:56;11.77;;;10.67;;
68921;SDS011;55959;51.244;5.724;2023-11-22T03:02:22;11.13;;;9.93;;
68921;SDS011;55959;51.244;5.724;2023-11-22T03:04:49;11.60;;;10.40;;
68921;SDS011;55959;51.244;5.724;2023-11-22T03:07:18;11.70;;;10.50;;
68921;SDS011;55959;51.244;5.724;2023-11-22T03:09:45;11.23;;;10.07;;
68921;SDS011;55959;51.244;5.724;2023-11-22T03:12:11;12.27;;;10.53;;
68921;SDS011;55959;51.244;5.724;2023-11-22T03:14:38;12.67;;;11.37;;
68921;SDS011;55959;51.244;5.724;2023-11-22T03:17:04;12.17;;;10.83;;
68921;SDS011;55959;51.244;5.724;2023-11-22T03:19:31;12.00;;;10.17;;
68921;SDS011;55959;51.244;5.724;2023-11-22T03:21:58;11.73;;;10.53;;
68921;SDS011;55959;51.244;5.724;2023-11-22T03:24:28;12.20;;;10.83;;
68921;SDS011;55959;51.244;5.724;2023-11-22T03:26:55;11.67;;;10.47;;
68921;SDS011;55959;51.244;5.724;2023-11-22T03:29:24;11.73;;;10.53;;
68921;SDS011;55959;51.244;5.724;2023-11-22T03:31:53;10.93;;;9.77;;
68921;SDS011;55959;51.244;5.724;2023-11-22T03:34:19;12.40;;;10.43;;
68921;SDS011;55959;51.244;5.724;2023-11-22T03:36:45;11.40;;;10.20;;
68921;SDS011;55959;51.244;5.724;2023-11-22T03:39:11;11.70;;;10.37;;
68921;SDS011;55959;51.244;5.724;2023-11-22T03:41:36;11.13;;;10.03;;
68921;SDS011;55959;51.244;5.724;2023-11-22T03:44:03;11.87;;;10.57;;
68921;SDS011;55959;51.244;5.724;2023-11-22T03:46:37;12.00;;;10.67;;
68921;SDS011;55959;51.244;5.724;2023-11-22T03:49:04;10.83;;;9.73;;
68921;SDS011;55959;51.244;5.724;2023-11-22T03:51:31;11.33;;;10.03;;
68921;SDS011;55959;51.244;5.724;2023-11-22T03:53:58;11.87;;;10.67;;
68921;SDS011;55959;51.244;5.724;2023-11-22T03:56:24;10.80;;;9.70;;
68921;SDS011;55959;51.244;5.724;2023-11-22T03:58:50;12.07;;;10.87;;
68921;SDS011;55959;51.244;5.724;2023-11-22T04:01:16;12.20;;;10.90;;
68921;SDS011;55959;51.244;5.724;2023-11-22T04:03:41;11.57;;;10.37;;
68921;SDS011;55959;51.244;5.724;2023-11-22T04:06:07;11.97;;;10.67;;
68921;SDS011;55959;51.244;5.724;2023-11-22T04:08:33;11.30;;;10.10;;
68921;SDS011;55959;51.244;5.724;2023-11-22T04:10:59;11.50;;;10.27;;
68921;SDS011;55959;51.244;5.724;2023-11-22T04:13:24;12.10;;;10.37;;
68921;SDS011;55959;51.244;5.724;2023-11-22T04:15:50;12.13;;;10.90;;
68921;SDS011;55959;51.244;5.724;2023-11-22T04:18:16;11.50;;;9.90;;
68921;SDS011;55959;51.244;5.724;2023-11-22T04:20:42;11.83;;;10.63;;
68921;SDS011;55959;51.244;5.724;2023-11-22T04:23:08;10.70;;;9.67;;
68921;SDS011;55959;51.244;5.724;2023-11-22T04:25:37;11.23;;;10.03;;
68921;SDS011;55959;51.244;5.724;2023-11-22T04:28:02;12.27;;;10.97;;
68921;SDS011;55959;51.244;5.724;2023-11-22T04:30:28;12.77;;;11.37;;
68921;SDS011;55959;51.244;5.724;2023-11-22T04:32:54;12.17;;;10.87;;
68921;SDS011;55959;51.244;5.724;2023-11-22T04:35:20;12.60;;;11.30;;
68921;SDS011;55959;51.244;5.724;2023-11-22T04:37:45;12.50;;;11.20;;
68921;SDS011;55959;51.244;5.724;2023-11-22T04:40:12;12.07;;;10.70;;
68921;SDS011;55959;51.244;5.724;2023-11-22T04:42:39;11.77;;;10.10;;
68921;SDS011;55959;51.244;5.724;2023-11-22T04:45:05;11.83;;;10.57;;
68921;SDS011;55959;51.244;5.724;2023-11-22T04:47:32;12.27;;;10.80;;
68921;SDS011;55959;51.244;5.724;2023-11-22T04:49:58;14.70;;;11.97;;
68921;SDS011;55959;51.244;5.724;2023-11-22T04:52:24;13.73;;;11.77;;
68921;SDS011;55959;51.244;5.724;2023-11-22T04:54:50;11.97;;;10.43;;
68921;SDS011;55959;51.244;5.724;2023-11-22T04:57:15;12.17;;;10.83;;
68921;SDS011;55959;51.244;5.724;2023-11-22T04:59:42;12.37;;;11.07;;
68921;SDS011;55959;51.244;5.724;2023-11-22T05:02:08;12.87;;;10.90;;
68921;SDS011;55959;51.244;5.724;2023-11-22T05:04:33;12.10;;;10.77;;
68921;SDS011;55959;51.244;5.724;2023-11-22T05:06:59;12.53;;;10.40;;
68921;SDS011;55959;51.244;5.724;2023-11-22T05:09:25;11.97;;;10.67;;
68921;SDS011;55959;51.244;5.724;2023-11-22T05:11:51;13.30;;;11.47;;
68921;SDS011;55959;51.244;5.724;2023-11-22T05:14:19;12.13;;;10.83;;
68921;SDS011;55959;51.244;5.724;2023-11-22T05:16:45;14.63;;;10.83;;
68921;SDS011;55959;51.244;5.724;2023-11-22T05:19:10;13.70;;;11.80;;
68921;SDS011;55959;51.244;5.724;2023-11-22T05:21:36;14.10;;;11.70;;
68921;SDS011;55959;51.244;5.724;2023-11-22T05:24:02;14.67;;;12.20;;
68921;SDS011;55959;51.244;5.724;2023-11-22T05:26:28;14.53;;;12.57;;
68921;SDS011;55959;51.244;5.724;2023-11-22T05:28:53;17.03;;;13.73;;
68921;SDS011;55959;51.244;5.724;2023-11-22T05:31:20;15.87;;;13.50;;
68921;SDS011;55959;51.244;5.724;2023-11-22T05:33:46;17.53;;;13.57;;
68921;SDS011;55959;51.244;5.724;2023-11-22T05:36:12;17.53;;;14.00;;
68921;SDS011;55959;51.244;5.724;2023-11-22T05:38:39;17.80;;;15.00;;
68921;SDS011;55959;51.244;5.724;2023-11-22T05:41:05;19.23;;;15.43;;
68921;SDS011;55959;51.244;5.724;2023-11-22T05:43:30;18.07;;;14.70;;
68921;SDS011;55959;51.244;5.724;2023-11-22T05:45:56;18.10;;;15.43;;
68921;SDS011;55959;51.244;5.724;2023-11-22T05:48:22;20.13;;;15.07;;
68921;SDS011;55959;51.244;5.724;2023-11-22T05:50:48;18.90;;;15.03;;
68921;SDS011;55959;51.244;5.724;2023-11-22T05:53:14;19.17;;;15.90;;
68921;SDS011;55959;51.244;5.724;2023-11-22T05:55:47;20.70;;;16.73;;
68921;SDS011;55959;51.244;5.724;2023-11-22T05:58:14;21.93;;;17.00;;
68921;SDS011;55959;51.244;5.724;2023-11-22T06:00:43;22.43;;;17.53;;
68921;SDS011;55959;51.244;5.724;2023-11-22T06:03:12;24.20;;;18.57;;
68921;SDS011;55959;51.244;5.724;2023-11-22T06:05:41;26.07;;;19.20;;
68921;SDS011;55959;51.244;5.724;2023-11-22T06:08:07;26.67;;;19.73;;
68921;SDS011;55959;51.244;5.724;2023-11-22T06:10:35;26.57;;;21.10;;
68921;SDS011;55959;51.244;5.724;2023-11-22T06:13:03;26.73;;;20.10;;
68921;SDS011;55959;51.244;5.724;2023-11-22T06:15:28;28.57;;;21.53;;
68921;SDS011;55959;51.244;5.724;2023-11-22T06:17:54;32.43;;;22.67;;
68921;SDS011;55959;51.244;5.724;2023-11-22T06:20:20;31.20;;;23.47;;
68921;SDS011;55959;51.244;5.724;2023-11-22T06:22:46;30.97;;;22.93;;
68921;SDS011;55959;51.244;5.724;2023-11-22T06:25:12;30.70;;;22.80;;
68921;SDS011;55959;51.244;5.724;2023-11-22T06:27:38;30.80;;;23.67;;
68921;SDS011;55959;51.244;5.724;2023-11-22T06:30:05;31.47;;;23.20;;
68921;SDS011;55959;51.244;5.724;2023-11-22T06:32:31;29.70;;;22.87;;
68921;SDS011;55959;51.244;5.724;2023-11-22T06:34:59;27.10;;;21.73;;
68921;SDS011;55959;51.244;5.724;2023-11-22T06:37:24;29.90;;;23.27;;
68921;SDS011;55959;51.244;5.724;2023-11-22T06:39:51;29.13;;;22.57;;
68921;SDS011;55959;51.244;5.724;2023-11-22T06:42:17;28.73;;;21.80;;
68921;SDS011;55959;51.244;5.724;2023-11-22T06:44:44;29.83;;;23.07;;
68921;SDS011;55959;51.244;5.724;2023-11-22T06:47:12;27.43;;;21.73;;
68921;SDS011;55959;51.244;5.724;2023-11-22T06:49:38;29.53;;;22.53;;
68921;SDS011;55959;51.244;5.724;2023-11-22T06:52:04;30.73;;;23.13;;
68921;SDS011;55959;51.244;5.724;2023-11-22T06:54:30;28.53;;;22.17;;
68921;SDS011;55959;51.244;5.724;2023-11-22T06:56:56;28.87;;;23.00;;
68921;SDS011;55959;51.244;5.724;2023-11-22T06:59:22;29.03;;;22.43;;
68921;SDS011;55959;51.244;5.724;2023-11-22T07:01:48;28.47;;;21.70;;
68921;SDS011;55959;51.244;5.724;2023-11-22T07:04:13;29.53;;;22.83;;
68921;SDS011;55959;51.244;5.724;2023-11-22T07:06:39;31.50;;;23.37;;
68921;SDS011;55959;51.244;5.724;2023-11-22T07:09:05;31.93;;;24.33;;
68921;SDS011;55959;51.244;5.724;2023-11-22T07:11:34;33.83;;;24.83;;
68921;SDS011;55959;51.244;5.724;2023-11-22T07:14:02;32.43;;;23.87;;
68921;SDS011;55959;51.244;5.724;2023-11-22T07:16:34;33.80;;;24.40;;
68921;SDS011;55959;51.244;5.724;2023-11-22T07:19:00;35.13;;;24.57;;
68921;SDS011;55959;51.244;5.724;2023-11-22T07:21:28;32.07;;;24.23;;
68921;SDS011;55959;51.244;5.724;2023-11-22T07:23:56;31.33;;;23.47;;
68921;SDS011;55959;51.244;5.724;2023-11-22T07:26:24;32.87;;;24.83;;
68921;SDS011;55959;51.244;5.724;2023-11-22T07:28:51;33.37;;;24.43;;
68921;SDS011;55959;51.244;5.724;2023-11-22T07:31:18;32.80;;;23.93;;
68921;SDS011;55959;51.244;5.724;2023-11-22T07:33:44;34.03;;;23.97;;
68921;SDS011;55959;51.244;5.724;2023-11-22T07:36:11;33.63;;;24.70;;
68921;SDS011;55959;51.244;5.724;2023-11-22T07:38:40;34.37;;;24.83;;
68921;SDS011;55959;51.244;5.724;2023-11-22T07:41:07;31.77;;;23.43;;
68921;SDS011;55959;51.244;5.724;2023-11-22T07:43:33;29.63;;;22.67;;
68921;SDS011;55959;51.244;5.724;2023-11-22T07:45:59;29.87;;;21.77;;
68921;SDS011;55959;51.244;5.724;2023-11-22T07:48:26;29.10;;;22.97;;
68921;SDS011;55959;51.244;5.724;2023-11-22T07:50:53;28.97;;;22.20;;
68921;SDS011;55959;51.244;5.724;2023-11-22T07:53:19;31.70;;;23.77;;
68921;SDS011;55959;51.244;5.724;2023-11-22T07:55:45;31.63;;;23.97;;
68921;SDS011;55959;51.244;5.724;2023-11-22T07:58:12;30.07;;;22.97;;
68921;SDS011;55959;51.244;5.724;2023-11-22T08:00:37;31.03;;;23.57;;
68921;SDS011;55959;51.244;5.724;2023-11-22T08:03:03;30.60;;;22.20;;
68921;SDS011;55959;51.244;5.724;2023-11-22T08:05:30;30.87;;;23.80;;
68921;SDS011;55959;51.244;5.724;2023-11-22T08:08:04;30.30;;;23.07;;
68921;SDS011;55959;51.244;5.724;2023-11-22T08:10:36;32.43;;;22.83;;
68921;SDS011;55959;51.244;5.724;2023-11-22T08:13:02;33.30;;;23.87;;
68921;SDS011;55959;51.244;5.724;2023-11-22T08:15:28;35.97;;;25.03;;
68921;SDS011;55959;51.244;5.724;2023-11-22T08:17:57;31.60;;;23.17;;
68921;SDS011;55959;51.244;5.724;2023-11-22T08:20:25;31.43;;;23.40;;
68921;SDS011;55959;51.244;5.724;2023-11-22T08:22:51;33.17;;;23.73;;
68921;SDS011;55959;51.244;5.724;2023-11-22T08:25:17;30.13;;;23.50;;
68921;SDS011;55959;51.244;5.724;2023-11-22T08:27:43;32.97;;;24.00;;
68921;SDS011;55959;51.244;5.724;2023-11-22T08:30:09;33.77;;;24.17;;
68921;SDS011;55959;51.244;5.724;2023-11-22T08:32:41;30.63;;;23.17;;
68921;SDS011;55959;51.244;5.724;2023-11-22T08:35:15;30.27;;;22.70;;
68921;SDS011;55959;51.244;5.724;2023-11-22T08:37:41;31.43;;;22.90;;
68921;SDS011;55959;51.244;5.724;2023-11-22T08:40:07;29.20;;;22.57;;
68921;SDS011;55959;51.244;5.724;2023-11-22T08:42:36;30.50;;;22.83;;
68921;SDS011;55959;51.244;5.724;2023-11-22T08:45:02;32.47;;;24.30;;
68921;SDS011;55959;51.244;5.724;2023-11-22T08:47:29;34.23;;;24.10;;
68921;SDS011;55959;51.244;5.724;2023-11-22T08:49:56;32.90;;;24.57;;
68921;SDS011;55959;51.244;5.724;2023-11-22T08:52:22;32.60;;;23.40;;
68921;SDS011;55959;51.244;5.724;2023-11-22T08:54:48;33.60;;;24.27;;
68921;SDS011;55959;51.244;5.724;2023-11-22T08:57:16;30.97;;;22.33;;
68921;SDS011;55959;51.244;5.724;2023-11-22T08:59:43;30.07;;;22.23;;
68921;SDS011;55959;51.244;5.724;2023-11-22T09:02:09;33.10;;;23.27;;
68921;SDS011;55959;51.244;5.724;2023-11-22T09:04:37;31.63;;;24.10;;
68921;SDS011;55959;51.244;5.724;2023-11-22T09:07:03;33.67;;;23.53;;
68921;SDS011;55959;51.244;5.724;2023-11-22T09:09:31;32.33;;;22.80;;
68921;SDS011;55959;51.244;5.724;2023-11-22T09:11:57;33.10;;;24.67;;
68921;SDS011;55959;51.244;5.724;2023-11-22T09:14:23;35.77;;;24.77;;
68921;SDS011;55959;51.244;5.724;2023-11-22T09:16:49;34.87;;;24.70;;
68921;SDS011;55959;51.244;5.724;2023-11-22T09:19:20;37.70;;;24.97;;
68921;SDS011;55959;51.244;5.724;2023-11-22T09:21:50;33.60;;;24.57;;
68921;SDS011;55959;51.244;5.724;2023-11-22T09:24:16;34.30;;;25.13;;
68921;SDS011;55959;51.244;5.724;2023-11-22T09:26:42;35.13;;;24.60;;
68921;SDS011;55959;51.244;5.724;2023-11-22T09:29:08;34.03;;;24.80;;
68921;SDS011;55959;51.244;5.724;2023-11-22T09:31:38;31.63;;;23.37;;
68921;SDS011;55959;51.244;5.724;2023-11-22T09:34:05;37.40;;;24.80;;
68921;SDS011;55959;51.244;5.724;2023-11-22T09:36:30;32.93;;;23.70;;
68921;SDS011;55959;51.244;5.724;2023-11-22T09:38:59;36.63;;;25.17;;
68921;SDS011;55959;51.244;5.724;2023-11-22T09:41:25;34.87;;;25.07;;
68921;SDS011;55959;51.244;5.724;2023-11-22T09:43:52;36.43;;;24.90;;
68921;SDS011;55959;51.244;5.724;2023-11-22T09:46:19;35.27;;;25.10;;
68921;SDS011;55959;51.244;5.724;2023-11-22T09:48:48;35.80;;;25.50;;
68921;SDS011;55959;51.244;5.724;2023-11-22T09:51:23;35.30;;;26.17;;
68921;SDS011;55959;51.244;5.724;2023-11-22T09:53:58;36.13;;;26.27;;
68921;SDS011;55959;51.244;5.724;2023-11-22T09:56:25;38.93;;;27.17;;
68921;SDS011;55959;51.244;5.724;2023-11-22T09:58:55;35.83;;;26.20;;
68921;SDS011;55959;51.244;5.724;2023-11-22T10:01:25;40.77;;;27.97;;
68921;SDS011;55959;51.244;5.724;2023-11-22T10:03:54;41.07;;;27.53;;
68921;SDS011;55959;51.244;5.724;2023-11-22T10:06:20;39.33;;;27.30;;
68921;SDS011;55959;51.244;5.724;2023-11-22T10:08:46;39.23;;;26.80;;
68921;SDS011;55959;51.244;5.724;2023-11-22T10:11:15;39.40;;;26.97;;
68921;SDS011;55959;51.244;5.724;2023-11-22T10:13:48;36.83;;;26.50;;
68921;SDS011;55959;51.244;5.724;2023-11-22T10:16:16;38.07;;;26.00;;
68921;SDS011;55959;51.244;5.724;2023-11-22T10:18:44;39.07;;;27.70;;
68921;SDS011;55959;51.244;5.724;2023-11-22T10:21:27;39.03;;;27.50;;
68921;SDS011;55959;51.244;5.724;2023-11-22T10:24:02;41.80;;;28.43;;
68921;SDS011;55959;51.244;5.724;2023-11-22T10:26:28;38.40;;;27.33;;
68921;SDS011;55959;51.244;5.724;2023-11-22T10:28:55;38.30;;;26.77;;
68921;SDS011;55959;51.244;5.724;2023-11-22T10:31:22;36.77;;;26.13;;
68921;SDS011;55959;51.244;5.724;2023-11-22T10:33:49;41.17;;;28.20;;
68921;SDS011;55959;51.244;5.724;2023-11-22T10:36:15;38.70;;;27.17;;
68921;SDS011;55959;51.244;5.724;2023-11-22T10:38:49;42.57;;;30.07;;
68921;SDS011;55959;51.244;5.724;2023-11-22T10:41:19;42.60;;;30.03;;
68921;SDS011;55959;51.244;5.724;2023-11-22T10:43:47;42.90;;;30.37;;
68921;SDS011;55959;51.244;5.724;2023-11-22T10:46:14;40.70;;;29.27;;
68921;SDS011;55959;51.244;5.724;2023-11-22T10:48:41;39.60;;;28.30;;
68921;SDS011;55959;51.244;5.724;2023-11-22T10:51:07;40.70;;;27.40;;
68921;SDS011;55959;51.244;5.724;2023-11-22T10:53:41;38.30;;;25.30;;
68921;SDS011;55959;51.244;5.724;2023-11-22T10:56:14;42.67;;;28.37;;
68921;SDS011;55959;51.244;5.724;2023-11-22T10:58:52;41.67;;;27.03;;
68921;SDS011;55959;51.244;5.724;2023-11-22T11:01:23;37.60;;;26.50;;
68921;SDS011;55959;51.244;5.724;2023-11-22T11:04:06;41.57;;;27.87;;
68921;SDS011;55959;51.244;5.724;2023-11-22T11:06:36;39.30;;;27.40;;
68921;SDS011;55959;51.244;5.724;2023-11-22T11:09:04;39.77;;;26.53;;
68921;SDS011;55959;51.244;5.724;2023-11-22T11:11:32;42.50;;;29.03;;
68921;SDS011;55959;51.244;5.724;2023-11-22T11:13:59;43.37;;;28.90;;
68921;SDS011;55959;51.244;5.724;2023-11-22T11:16:28;43.37;;;29.63;;
68921;SDS011;55959;51.244;5.724;2023-11-22T11:18:56;41.07;;;27.33;;
68921;SDS011;55959;51.244;5.724;2023-11-22T11:21:23;39.83;;;27.70;;
68921;SDS011;55959;51.244;5.724;2023-11-22T11:23:51;38.87;;;27.03;;
68921;SDS011;55959;51.244;5.724;2023-11-22T11:26:20;39.07;;;26.20;;
68921;SDS011;55959;51.244;5.724;2023-11-22T11:28:49;38.47;;;26.53;;
68921;SDS011;55959;51.244;5.724;2023-11-22T11:31:16;38.57;;;26.00;;
68921;SDS011;55959;51.244;5.724;2023-11-22T11:36:23;38.67;;;26.30;;
68921;SDS011;55959;51.244;5.724;2023-11-22T11:38:52;36.37;;;25.10;;
68921;SDS011;55959;51.244;5.724;2023-11-22T11:41:23;37.90;;;25.03;;
68921;SDS011;55959;51.244;5.724;2023-11-22T11:44:02;34.33;;;24.70;;
68921;SDS011;55959;51.244;5.724;2023-11-22T11:46:29;37.50;;;26.87;;
68921;SDS011;55959;51.244;5.724;2023-11-22T11:48:56;36.60;;;26.37;;
68921;SDS011;55959;51.244;5.724;2023-11-22T11:51:23;36.03;;;25.97;;
68921;SDS011;55959;51.244;5.724;2023-11-22T11:53:51;35.67;;;25.07;;
68921;SDS011;55959;51.244;5.724;2023-11-22T11:56:17;33.20;;;24.70;;
68921;SDS011;55959;51.244;5.724;2023-11-22T11:58:43;33.30;;;24.13;;
68921;SDS011;55959;51.244;5.724;2023-11-22T12:01:14;33.07;;;23.67;;
68921;SDS011;55959;51.244;5.724;2023-11-22T12:03:41;31.57;;;23.70;;
68921;SDS011;55959;51.244;5.724;2023-11-22T12:06:13;32.93;;;23.90;;
68921;SDS011;55959;51.244;5.724;2023-11-22T12:08:41;30.57;;;23.57;;
68921;SDS011;55959;51.244;5.724;2023-11-22T12:11:07;34.13;;;24.27;;
68921;SDS011;55959;51.244;5.724;2023-11-22T12:13:33;34.97;;;24.40;;
68921;SDS011;55959;51.244;5.724;2023-11-22T12:16:00;34.43;;;25.27;;
68921;SDS011;55959;51.244;5.724;2023-11-22T12:18:38;33.23;;;24.10;;
68921;SDS011;55959;51.244;5.724;2023-11-22T12:21:15;33.90;;;25.47;;
68921;SDS011;55959;51.244;5.724;2023-11-22T12:23:44;34.37;;;25.17;;
68921;SDS011;55959;51.244;5.724;2023-11-22T12:26:12;34.43;;;25.47;;
68921;SDS011;55959;51.244;5.724;2023-11-22T12:28:41;34.57;;;24.97;;
68921;SDS011;55959;51.244;5.724;2023-11-22T12:31:11;32.03;;;24.17;;
68921;SDS011;55959;51.244;5.724;2023-11-22T12:33:42;28.63;;;23.37;;
68921;SDS011;55959;51.244;5.724;2023-11-22T12:36:10;29.67;;;22.57;;
68921;SDS011;55959;51.244;5.724;2023-11-22T12:38:41;27.47;;;20.90;;
68921;SDS011;55959;51.244;5.724;2023-11-22T12:41:07;26.30;;;20.83;;
68921;SDS011;55959;51.244;5.724;2023-11-22T12:43:33;27.73;;;22.10;;
68921;SDS011;55959;51.244;5.724;2023-11-22T12:46:01;26.50;;;21.13;;
68921;SDS011;55959;51.244;5.724;2023-11-22T12:48:31;25.43;;;20.20;;
68921;SDS011;55959;51.244;5.724;2023-11-22T12:50:57;25.27;;;20.53;;
68921;SDS011;55959;51.244;5.724;2023-11-22T12:53:24;24.33;;;18.90;;
68921;SDS011;55959;51.244;5.724;2023-11-22T12:55:53;25.47;;;20.73;;
68921;SDS011;55959;51.244;5.724;2023-11-22T12:58:24;27.87;;;21.97;;
68921;SDS011;55959;51.244;5.724;2023-11-22T13:00:54;26.27;;;19.93;;
68921;SDS011;55959;51.244;5.724;2023-11-22T13:03:25;23.53;;;18.60;;
68921;SDS011;55959;51.244;5.724;2023-11-22T13:05:51;23.40;;;18.67;;
68921;SDS011;55959;51.244;5.724;2023-11-22T13:08:18;21.73;;;17.27;;
68921;SDS011;55959;51.244;5.724;2023-11-22T13:10:46;20.83;;;17.27;;
68921;SDS011;55959;51.244;5.724;2023-11-22T13:13:23;22.80;;;18.27;;
68921;SDS011;55959;51.244;5.724;2023-11-22T13:15:50;24.60;;;18.73;;
68921;SDS011;55959;51.244;5.724;2023-11-22T13:18:17;21.27;;;17.73;;
68921;SDS011;55959;51.244;5.724;2023-11-22T13:20:43;22.67;;;17.40;;
68921;SDS011;55959;51.244;5.724;2023-11-22T13:23:10;20.60;;;16.73;;
68921;SDS011;55959;51.244;5.724;2023-11-22T13:25:37;19.40;;;15.47;;
68921;SDS011;55959;51.244;5.724;2023-11-22T13:28:03;18.33;;;15.53;;
68921;SDS011;55959;51.244;5.724;2023-11-22T13:30:30;20.97;;;16.30;;
68921;SDS011;55959;51.244;5.724;2023-11-22T13:32:57;17.03;;;14.30;;
68921;SDS011;55959;51.244;5.724;2023-11-22T13:35:26;18.20;;;14.73;;
68921;SDS011;55959;51.244;5.724;2023-11-22T13:37:57;18.40;;;15.10;;
68921;SDS011;55959;51.244;5.724;2023-11-22T13:40:24;16.50;;;13.07;;
68921;SDS011;55959;51.244;5.724;2023-11-22T13:42:53;16.60;;;13.70;;
68921;SDS011;55959;51.244;5.724;2023-11-22T13:45:19;18.03;;;14.40;;
68921;SDS011;55959;51.244;5.724;2023-11-22T13:47:52;17.43;;;14.83;;
68921;SDS011;55959;51.244;5.724;2023-11-22T13:50:25;17.07;;;14.27;;
68921;SDS011;55959;51.244;5.724;2023-11-22T13:52:52;17.63;;;13.73;;
68921;SDS011;55959;51.244;5.724;2023-11-22T13:55:20;18.47;;;14.17;;
68921;SDS011;55959;51.244;5.724;2023-11-22T13:57:56;15.97;;;13.33;;
68921;SDS011;55959;51.244;5.724;2023-11-22T14:00:25;17.53;;;14.33;;
68921;SDS011;55959;51.244;5.724;2023-11-22T14:03:01;16.43;;;13.10;;
68921;SDS011;55959;51.244;5.724;2023-11-22T14:05:31;15.83;;;13.30;;
68921;SDS011;55959;51.244;5.724;2023-11-22T14:08:01;16.43;;;12.13;;
68921;SDS011;55959;51.244;5.724;2023-11-22T14:10:27;17.50;;;13.70;;
68921;SDS011;55959;51.244;5.724;2023-11-22T14:12:53;17.20;;;13.30;;
68921;SDS011;55959;51.244;5.724;2023-11-22T14:15:19;16.77;;;13.53;;
68921;SDS011;55959;51.244;5.724;2023-11-22T14:17:45;16.93;;;13.50;;
68921;SDS011;55959;51.244;5.724;2023-11-22T14:20:14;15.47;;;12.37;;
68921;SDS011;55959;51.244;5.724;2023-11-22T14:22:41;17.23;;;13.20;;
68921;SDS011;55959;51.244;5.724;2023-11-22T14:25:08;17.57;;;14.07;;
68921;SDS011;55959;51.244;5.724;2023-11-22T14:27:39;17.60;;;13.13;;
68921;SDS011;55959;51.244;5.724;2023-11-22T14:30:09;18.60;;;14.57;;